sensor_id;sensor_type;location;lat;lon;timestamp;temperature;humidity
22360;DHT22;11347;52.030;4.690;2022-08-19T00:01:42;24.30;62.80
22360;DHT22;11347;52.030;4.690;2022-08-19T00:04:10;24.30;62.80
22360;DHT22;11347;52.030;4.690;2022-08-19T00:06:38;24.30;62.80
22360;DHT22;11347;52.030;4.690;2022-08-19T00:09:05;24.30;62.80
22360;DHT22;11347;52.030;4.690;2022-08-19T00:11:32;24.30;62.80
22360;DHT22;11347;52.030;4.690;2022-08-19T00:13:59;24.20;62.70
22360;DHT22;11347;52.030;4.690;2022-08-19T00:16:25;24.30;62.80
22360;DHT22;11347;52.030;4.690;2022-08-19T00:18:51;24.20;62.70
22360;DHT22;11347;52.030;4.690;2022-08-19T00:21:17;24.20;62.70
22360;DHT22;11347;52.030;4.690;2022-08-19T00:23:43;24.20;62.70
22360;DHT22;11347;52.030;4.690;2022-08-19T00:26:10;24.20;62.70
22360;DHT22;11347;52.030;4.690;2022-08-19T00:28:36;24.20;62.70
22360;DHT22;11347;52.030;4.690;2022-08-19T00:31:06;24.20;62.70
22360;DHT22;11347;52.030;4.690;2022-08-19T00:33:33;24.20;62.70
22360;DHT22;11347;52.030;4.690;2022-08-19T00:36:03;24.20;62.70
22360;DHT22;11347;52.030;4.690;2022-08-19T00:38:30;24.20;62.70
22360;DHT22;11347;52.030;4.690;2022-08-19T00:40:56;24.20;62.70
22360;DHT22;11347;52.030;4.690;2022-08-19T00:43:24;24.20;62.70
22360;DHT22;11347;52.030;4.690;2022-08-19T00:45:51;24.20;62.70
22360;DHT22;11347;52.030;4.690;2022-08-19T00:48:17;24.20;62.70
22360;DHT22;11347;52.030;4.690;2022-08-19T00:50:44;24.10;62.60
22360;DHT22;11347;52.030;4.690;2022-08-19T00:53:12;24.10;62.60
22360;DHT22;11347;52.030;4.690;2022-08-19T00:55:45;24.10;62.60
22360;DHT22;11347;52.030;4.690;2022-08-19T00:58:14;24.10;62.60
22360;DHT22;11347;52.030;4.690;2022-08-19T01:00:40;24.10;62.60
22360;DHT22;11347;52.030;4.690;2022-08-19T01:03:09;24.10;63.10
22360;DHT22;11347;52.030;4.690;2022-08-19T01:05:37;24.10;63.10
22360;DHT22;11347;52.030;4.690;2022-08-19T01:08:06;24.10;62.60
22360;DHT22;11347;52.030;4.690;2022-08-19T01:10:39;24.10;62.60
22360;DHT22;11347;52.030;4.690;2022-08-19T01:13:06;24.10;62.60
22360;DHT22;11347;52.030;4.690;2022-08-19T01:15:35;24.10;62.60
22360;DHT22;11347;52.030;4.690;2022-08-19T01:18:09;24.10;62.60
22360;DHT22;11347;52.030;4.690;2022-08-19T01:20:36;24.10;62.60
22360;DHT22;11347;52.030;4.690;2022-08-19T01:23:03;24.10;62.60
22360;DHT22;11347;52.030;4.690;2022-08-19T01:25:42;24.00;62.60
22360;DHT22;11347;52.030;4.690;2022-08-19T01:28:19;24.10;62.60
22360;DHT22;11347;52.030;4.690;2022-08-19T01:30:46;24.10;62.60
22360;DHT22;11347;52.030;4.690;2022-08-19T01:33:12;24.00;62.50
22360;DHT22;11347;52.030;4.690;2022-08-19T01:35:38;24.00;62.50
22360;DHT22;11347;52.030;4.690;2022-08-19T01:38:07;24.00;62.50
22360;DHT22;11347;52.030;4.690;2022-08-19T01:40:34;24.00;62.50
22360;DHT22;11347;52.030;4.690;2022-08-19T01:43:01;24.00;62.50
22360;DHT22;11347;52.030;4.690;2022-08-19T01:45:30;24.00;62.50
22360;DHT22;11347;52.030;4.690;2022-08-19T01:47:57;24.00;62.50
22360;DHT22;11347;52.030;4.690;2022-08-19T01:50:23;24.00;62.60
22360;DHT22;11347;52.030;4.690;2022-08-19T01:52:48;24.00;62.50
22360;DHT22;11347;52.030;4.690;2022-08-19T01:55:18;24.00;62.50
22360;DHT22;11347;52.030;4.690;2022-08-19T01:57:48;24.00;62.50
22360;DHT22;11347;52.030;4.690;2022-08-19T02:00:19;24.00;62.50
22360;DHT22;11347;52.030;4.690;2022-08-19T02:02:45;24.00;62.50
22360;DHT22;11347;52.030;4.690;2022-08-19T02:05:11;24.00;62.60
22360;DHT22;11347;52.030;4.690;2022-08-19T02:07:38;24.00;62.70
22360;DHT22;11347;52.030;4.690;2022-08-19T02:10:07;24.00;62.80
22360;DHT22;11347;52.030;4.690;2022-08-19T02:12:33;23.90;62.80
22360;DHT22;11347;52.030;4.690;2022-08-19T02:14:59;23.90;62.90
22360;DHT22;11347;52.030;4.690;2022-08-19T02:17:27;23.90;62.90
22360;DHT22;11347;52.030;4.690;2022-08-19T02:19:54;23.90;62.90
22360;DHT22;11347;52.030;4.690;2022-08-19T02:22:20;23.90;63.00
22360;DHT22;11347;52.030;4.690;2022-08-19T02:24:46;23.90;63.10
22360;DHT22;11347;52.030;4.690;2022-08-19T02:27:13;23.90;63.20
22360;DHT22;11347;52.030;4.690;2022-08-19T02:29:39;23.90;63.20
22360;DHT22;11347;52.030;4.690;2022-08-19T02:32:05;23.90;63.30
22360;DHT22;11347;52.030;4.690;2022-08-19T02:34:30;23.90;63.30
22360;DHT22;11347;52.030;4.690;2022-08-19T02:36:56;23.90;63.40
22360;DHT22;11347;52.030;4.690;2022-08-19T02:39:21;23.80;63.30
22360;DHT22;11347;52.030;4.690;2022-08-19T02:41:47;23.90;63.40
22360;DHT22;11347;52.030;4.690;2022-08-19T02:44:13;23.90;63.40
22360;DHT22;11347;52.030;4.690;2022-08-19T02:46:39;23.80;63.30
22360;DHT22;11347;52.030;4.690;2022-08-19T02:49:06;23.80;63.20
22360;DHT22;11347;52.030;4.690;2022-08-19T02:51:38;23.80;63.20
22360;DHT22;11347;52.030;4.690;2022-08-19T02:54:04;23.80;63.10
22360;DHT22;11347;52.030;4.690;2022-08-19T02:56:31;23.80;63.10
22360;DHT22;11347;52.030;4.690;2022-08-19T02:58:57;23.80;63.00
22360;DHT22;11347;52.030;4.690;2022-08-19T03:01:30;23.80;62.90
22360;DHT22;11347;52.030;4.690;2022-08-19T03:03:58;23.80;62.80
22360;DHT22;11347;52.030;4.690;2022-08-19T03:06:25;23.80;62.70
22360;DHT22;11347;52.030;4.690;2022-08-19T03:08:51;23.80;62.70
22360;DHT22;11347;52.030;4.690;2022-08-19T03:11:21;23.80;62.70
22360;DHT22;11347;52.030;4.690;2022-08-19T03:13:47;23.80;62.80
22360;DHT22;11347;52.030;4.690;2022-08-19T03:16:18;23.80;62.80
22360;DHT22;11347;52.030;4.690;2022-08-19T03:18:44;23.80;63.00
22360;DHT22;11347;52.030;4.690;2022-08-19T03:21:14;23.80;63.30
22360;DHT22;11347;52.030;4.690;2022-08-19T03:23:39;23.80;63.50
22360;DHT22;11347;52.030;4.690;2022-08-19T03:26:05;23.80;63.70
22360;DHT22;11347;52.030;4.690;2022-08-19T03:28:32;23.80;63.70
22360;DHT22;11347;52.030;4.690;2022-08-19T03:31:09;23.80;63.80
22360;DHT22;11347;52.030;4.690;2022-08-19T03:33:35;23.80;64.00
22360;DHT22;11347;52.030;4.690;2022-08-19T03:36:09;23.80;64.10
22360;DHT22;11347;52.030;4.690;2022-08-19T03:38:37;23.70;64.10
22360;DHT22;11347;52.030;4.690;2022-08-19T03:41:06;23.70;64.20
22360;DHT22;11347;52.030;4.690;2022-08-19T03:43:34;23.80;64.40
22360;DHT22;11347;52.030;4.690;2022-08-19T03:46:02;23.70;64.40
22360;DHT22;11347;52.030;4.690;2022-08-19T03:48:29;23.70;64.50
22360;DHT22;11347;52.030;4.690;2022-08-19T03:50:56;23.80;64.70
22360;DHT22;11347;52.030;4.690;2022-08-19T03:53:23;23.70;64.90
22360;DHT22;11347;52.030;4.690;2022-08-19T03:55:49;23.70;65.20
22360;DHT22;11347;52.030;4.690;2022-08-19T03:58:14;23.70;65.40
22360;DHT22;11347;52.030;4.690;2022-08-19T04:00:43;23.70;65.40
22360;DHT22;11347;52.030;4.690;2022-08-19T04:03:08;23.70;65.50
22360;DHT22;11347;52.030;4.690;2022-08-19T04:05:34;23.70;65.50
22360;DHT22;11347;52.030;4.690;2022-08-19T04:08:00;23.70;65.40
22360;DHT22;11347;52.030;4.690;2022-08-19T04:10:27;23.70;65.40
22360;DHT22;11347;52.030;4.690;2022-08-19T04:12:53;23.70;65.30
22360;DHT22;11347;52.030;4.690;2022-08-19T04:15:19;23.70;65.30
22360;DHT22;11347;52.030;4.690;2022-08-19T04:17:45;23.70;65.30
22360;DHT22;11347;52.030;4.690;2022-08-19T04:20:11;23.70;65.40
22360;DHT22;11347;52.030;4.690;2022-08-19T04:22:37;23.70;65.40
22360;DHT22;11347;52.030;4.690;2022-08-19T04:25:03;23.70;65.50
22360;DHT22;11347;52.030;4.690;2022-08-19T04:27:28;23.70;65.50
22360;DHT22;11347;52.030;4.690;2022-08-19T04:29:54;23.70;65.50
22360;DHT22;11347;52.030;4.690;2022-08-19T04:32:20;23.70;65.40
22360;DHT22;11347;52.030;4.690;2022-08-19T04:34:46;23.70;65.30
22360;DHT22;11347;52.030;4.690;2022-08-19T04:37:12;23.70;65.20
22360;DHT22;11347;52.030;4.690;2022-08-19T04:39:38;23.70;65.10
22360;DHT22;11347;52.030;4.690;2022-08-19T04:42:23;23.70;65.10
22360;DHT22;11347;52.030;4.690;2022-08-19T04:45:10;23.70;65.00
22360;DHT22;11347;52.030;4.690;2022-08-19T04:47:37;23.70;65.00
22360;DHT22;11347;52.030;4.690;2022-08-19T04:50:03;23.70;65.00
22360;DHT22;11347;52.030;4.690;2022-08-19T04:52:30;23.70;65.10
22360;DHT22;11347;52.030;4.690;2022-08-19T04:54:56;23.70;65.10
22360;DHT22;11347;52.030;4.690;2022-08-19T04:57:22;23.70;65.10
22360;DHT22;11347;52.030;4.690;2022-08-19T04:59:48;23.70;65.10
22360;DHT22;11347;52.030;4.690;2022-08-19T05:02:13;23.70;65.10
22360;DHT22;11347;52.030;4.690;2022-08-19T05:04:39;23.70;65.10
22360;DHT22;11347;52.030;4.690;2022-08-19T05:07:06;23.70;65.10
22360;DHT22;11347;52.030;4.690;2022-08-19T05:09:32;23.70;65.20
22360;DHT22;11347;52.030;4.690;2022-08-19T05:11:57;23.70;65.20
22360;DHT22;11347;52.030;4.690;2022-08-19T05:14:23;23.70;65.30
22360;DHT22;11347;52.030;4.690;2022-08-19T05:16:48;23.70;65.10
22360;DHT22;11347;52.030;4.690;2022-08-19T05:19:14;23.70;65.20
22360;DHT22;11347;52.030;4.690;2022-08-19T05:22:00;23.70;65.30
22360;DHT22;11347;52.030;4.690;2022-08-19T05:24:44;23.80;65.20
22360;DHT22;11347;52.030;4.690;2022-08-19T05:27:09;23.70;65.20
22360;DHT22;11347;52.030;4.690;2022-08-19T05:29:35;23.70;65.20
22360;DHT22;11347;52.030;4.690;2022-08-19T05:32:03;23.80;65.30
22360;DHT22;11347;52.030;4.690;2022-08-19T05:34:30;23.80;65.30
22360;DHT22;11347;52.030;4.690;2022-08-19T05:36:59;23.80;65.40
22360;DHT22;11347;52.030;4.690;2022-08-19T05:39:29;23.80;65.40
22360;DHT22;11347;52.030;4.690;2022-08-19T05:41:58;23.80;65.50
22360;DHT22;11347;52.030;4.690;2022-08-19T05:44:26;23.80;65.60
22360;DHT22;11347;52.030;4.690;2022-08-19T05:46:53;23.80;65.60
22360;DHT22;11347;52.030;4.690;2022-08-19T05:49:20;23.80;65.70
22360;DHT22;11347;52.030;4.690;2022-08-19T05:51:47;23.80;65.80
22360;DHT22;11347;52.030;4.690;2022-08-19T05:54:12;23.80;65.80
22360;DHT22;11347;52.030;4.690;2022-08-19T05:56:40;23.80;65.80
22360;DHT22;11347;52.030;4.690;2022-08-19T05:59:08;23.90;65.80
22360;DHT22;11347;52.030;4.690;2022-08-19T06:01:37;23.80;65.70
22360;DHT22;11347;52.030;4.690;2022-08-19T06:04:03;23.90;66.20
22360;DHT22;11347;52.030;4.690;2022-08-19T06:06:29;23.90;66.00
22360;DHT22;11347;52.030;4.690;2022-08-19T06:08:55;23.90;66.10
22360;DHT22;11347;52.030;4.690;2022-08-19T06:11:25;24.00;66.20
22360;DHT22;11347;52.030;4.690;2022-08-19T06:14:01;23.90;66.10
22360;DHT22;11347;52.030;4.690;2022-08-19T06:16:27;24.00;66.20
22360;DHT22;11347;52.030;4.690;2022-08-19T06:18:54;24.00;66.00
22360;DHT22;11347;52.030;4.690;2022-08-19T06:21:24;24.00;66.00
22360;DHT22;11347;52.030;4.690;2022-08-19T06:23:54;24.00;66.00
22360;DHT22;11347;52.030;4.690;2022-08-19T06:26:20;24.00;66.00
22360;DHT22;11347;52.030;4.690;2022-08-19T06:28:47;24.10;66.20
22360;DHT22;11347;52.030;4.690;2022-08-19T06:31:25;24.10;66.00
22360;DHT22;11347;52.030;4.690;2022-08-19T06:33:51;24.10;66.00
22360;DHT22;11347;52.030;4.690;2022-08-19T06:36:18;24.10;65.80
22360;DHT22;11347;52.030;4.690;2022-08-19T06:38:43;24.10;65.70
22360;DHT22;11347;52.030;4.690;2022-08-19T06:41:09;24.10;65.80
22360;DHT22;11347;52.030;4.690;2022-08-19T06:43:35;24.10;65.60
22360;DHT22;11347;52.030;4.690;2022-08-19T06:46:24;24.20;65.70
22360;DHT22;11347;52.030;4.690;2022-08-19T06:48:53;24.20;65.80
22360;DHT22;11347;52.030;4.690;2022-08-19T06:54:23;24.20;65.70
22360;DHT22;11347;52.030;4.690;2022-08-19T07:03:52;24.40;65.40
22360;DHT22;11347;52.030;4.690;2022-08-19T07:06:28;24.40;64.90
22360;DHT22;11347;52.030;4.690;2022-08-19T07:09:22;24.40;64.40
22360;DHT22;11347;52.030;4.690;2022-08-19T07:11:52;24.40;63.80
22360;DHT22;11347;52.030;4.690;2022-08-19T07:35:39;24.60;63.90
22360;DHT22;11347;52.030;4.690;2022-08-19T07:39:04;24.60;63.90
22360;DHT22;11347;52.030;4.690;2022-08-19T07:41:12;24.60;63.90
22360;DHT22;11347;52.030;4.690;2022-08-19T07:43:41;24.70;63.90
22360;DHT22;11347;52.030;4.690;2022-08-19T07:46:09;24.70;64.00
22360;DHT22;11347;52.030;4.690;2022-08-19T07:48:35;24.70;64.00
22360;DHT22;11347;52.030;4.690;2022-08-19T07:51:04;24.70;64.10
22360;DHT22;11347;52.030;4.690;2022-08-19T07:53:31;24.70;63.90
22360;DHT22;11347;52.030;4.690;2022-08-19T07:55:58;24.70;63.90
22360;DHT22;11347;52.030;4.690;2022-08-19T07:58:27;24.80;63.90
22360;DHT22;11347;52.030;4.690;2022-08-19T08:00:53;24.80;63.90
22360;DHT22;11347;52.030;4.690;2022-08-19T08:03:20;24.80;63.90
22360;DHT22;11347;52.030;4.690;2022-08-19T08:06:07;24.90;63.90
22360;DHT22;11347;52.030;4.690;2022-08-19T08:08:51;24.90;63.80
22360;DHT22;11347;52.030;4.690;2022-08-19T08:11:35;24.90;63.80
22360;DHT22;11347;52.030;4.690;2022-08-19T08:14:01;24.90;63.70
22360;DHT22;11347;52.030;4.690;2022-08-19T08:16:27;24.90;63.60
22360;DHT22;11347;52.030;4.690;2022-08-19T08:18:56;24.90;63.30
22360;DHT22;11347;52.030;4.690;2022-08-19T08:21:22;24.90;63.30
22360;DHT22;11347;52.030;4.690;2022-08-19T08:23:47;25.00;63.30
22360;DHT22;11347;52.030;4.690;2022-08-19T08:26:13;25.00;63.30
22360;DHT22;11347;52.030;4.690;2022-08-19T08:28:40;25.00;63.30
22360;DHT22;11347;52.030;4.690;2022-08-19T08:31:05;25.00;63.30
22360;DHT22;11347;52.030;4.690;2022-08-19T08:33:31;25.00;63.30
22360;DHT22;11347;52.030;4.690;2022-08-19T08:35:56;25.00;63.40
22360;DHT22;11347;52.030;4.690;2022-08-19T08:38:22;25.00;63.30
22360;DHT22;11347;52.030;4.690;2022-08-19T08:40:52;25.10;63.40
22360;DHT22;11347;52.030;4.690;2022-08-19T08:43:27;25.00;63.30
22360;DHT22;11347;52.030;4.690;2022-08-19T08:46:44;25.10;63.40
22360;DHT22;11347;52.030;4.690;2022-08-19T08:49:03;25.10;63.40
22360;DHT22;11347;52.030;4.690;2022-08-19T08:51:35;25.10;63.40
22360;DHT22;11347;52.030;4.690;2022-08-19T08:54:05;25.10;63.40
22360;DHT22;11347;52.030;4.690;2022-08-19T08:56:32;25.10;63.40
22360;DHT22;11347;52.030;4.690;2022-08-19T08:59:07;25.10;63.40
22360;DHT22;11347;52.030;4.690;2022-08-19T09:01:35;25.10;63.40
22360;DHT22;11347;52.030;4.690;2022-08-19T09:04:05;25.10;63.40
22360;DHT22;11347;52.030;4.690;2022-08-19T09:06:51;25.10;63.40
22360;DHT22;11347;52.030;4.690;2022-08-19T09:16:53;25.20;63.40
22360;DHT22;11347;52.030;4.690;2022-08-19T09:19:18;25.20;63.50
22360;DHT22;11347;52.030;4.690;2022-08-19T09:21:44;25.20;63.50
22360;DHT22;11347;52.030;4.690;2022-08-19T09:24:11;25.20;63.40
22360;DHT22;11347;52.030;4.690;2022-08-19T09:26:36;25.20;63.40
22360;DHT22;11347;52.030;4.690;2022-08-19T09:29:02;25.20;63.40
22360;DHT22;11347;52.030;4.690;2022-08-19T09:31:30;25.20;63.50
22360;DHT22;11347;52.030;4.690;2022-08-19T09:33:58;25.30;63.50
22360;DHT22;11347;52.030;4.690;2022-08-19T09:36:26;25.30;63.50
22360;DHT22;11347;52.030;4.690;2022-08-19T09:38:55;25.30;63.50
22360;DHT22;11347;52.030;4.690;2022-08-19T09:41:22;25.30;63.50
22360;DHT22;11347;52.030;4.690;2022-08-19T09:43:51;25.30;63.50
22360;DHT22;11347;52.030;4.690;2022-08-19T09:46:18;25.30;63.50
22360;DHT22;11347;52.030;4.690;2022-08-19T09:48:47;25.40;63.60
22360;DHT22;11347;52.030;4.690;2022-08-19T09:51:17;25.40;63.60
22360;DHT22;11347;52.030;4.690;2022-08-19T09:53:44;25.40;63.60
22360;DHT22;11347;52.030;4.690;2022-08-19T09:56:11;25.40;63.60
22360;DHT22;11347;52.030;4.690;2022-08-19T09:58:38;25.40;63.60
22360;DHT22;11347;52.030;4.690;2022-08-19T10:01:05;25.40;63.60
22360;DHT22;11347;52.030;4.690;2022-08-19T10:03:32;25.40;63.70
22360;DHT22;11347;52.030;4.690;2022-08-19T10:06:00;25.50;63.20
22360;DHT22;11347;52.030;4.690;2022-08-19T10:08:30;25.50;63.10
22360;DHT22;11347;52.030;4.690;2022-08-19T10:10:56;25.40;62.90
22360;DHT22;11347;52.030;4.690;2022-08-19T10:13:24;25.40;62.80
22360;DHT22;11347;52.030;4.690;2022-08-19T10:15:51;25.50;62.80
22360;DHT22;11347;52.030;4.690;2022-08-19T10:18:18;25.50;62.90
22360;DHT22;11347;52.030;4.690;2022-08-19T10:20:47;25.50;62.90
22360;DHT22;11347;52.030;4.690;2022-08-19T10:23:14;25.50;62.90
22360;DHT22;11347;52.030;4.690;2022-08-19T10:25:41;25.50;62.90
22360;DHT22;11347;52.030;4.690;2022-08-19T10:28:08;25.50;62.90
22360;DHT22;11347;52.030;4.690;2022-08-19T10:30:38;25.50;63.40
22360;DHT22;11347;52.030;4.690;2022-08-19T10:33:05;25.50;62.90
22360;DHT22;11347;52.030;4.690;2022-08-19T10:35:30;25.50;63.40
22360;DHT22;11347;52.030;4.690;2022-08-19T10:37:56;25.50;62.90
22360;DHT22;11347;52.030;4.690;2022-08-19T10:40:27;25.50;62.80
22360;DHT22;11347;52.030;4.690;2022-08-19T10:42:54;25.50;62.70
22360;DHT22;11347;52.030;4.690;2022-08-19T10:45:20;25.50;62.50
22360;DHT22;11347;52.030;4.690;2022-08-19T10:47:49;25.50;62.40
22360;DHT22;11347;52.030;4.690;2022-08-19T10:50:14;25.50;62.30
22360;DHT22;11347;52.030;4.690;2022-08-19T10:53:04;25.50;62.20
22360;DHT22;11347;52.030;4.690;2022-08-19T10:55:30;25.50;62.30
22360;DHT22;11347;52.030;4.690;2022-08-19T10:58:18;25.60;62.40
22360;DHT22;11347;52.030;4.690;2022-08-19T11:00:56;25.60;62.40
22360;DHT22;11347;52.030;4.690;2022-08-19T11:03:23;25.60;62.50
22360;DHT22;11347;52.030;4.690;2022-08-19T11:06:04;25.60;62.30
22360;DHT22;11347;52.030;4.690;2022-08-19T11:08:30;25.60;62.30
22360;DHT22;11347;52.030;4.690;2022-08-19T11:10:59;25.60;62.20
22360;DHT22;11347;52.030;4.690;2022-08-19T11:13:30;25.60;62.10
22360;DHT22;11347;52.030;4.690;2022-08-19T11:16:02;25.70;62.00
22360;DHT22;11347;52.030;4.690;2022-08-19T11:18:28;25.70;61.70
22360;DHT22;11347;52.030;4.690;2022-08-19T11:20:54;25.70;61.60
22360;DHT22;11347;52.030;4.690;2022-08-19T11:23:20;25.70;61.50
22360;DHT22;11347;52.030;4.690;2022-08-19T11:25:46;25.70;61.40
22360;DHT22;11347;52.030;4.690;2022-08-19T11:28:12;25.70;61.30
22360;DHT22;11347;52.030;4.690;2022-08-19T11:30:39;25.70;61.20
22360;DHT22;11347;52.030;4.690;2022-08-19T11:33:04;25.70;61.10
22360;DHT22;11347;52.030;4.690;2022-08-19T11:35:30;25.70;61.10
22360;DHT22;11347;52.030;4.690;2022-08-19T11:37:56;25.70;60.90
22360;DHT22;11347;52.030;4.690;2022-08-19T11:40:26;25.70;60.80
22360;DHT22;11347;52.030;4.690;2022-08-19T11:42:52;25.70;60.80
22360;DHT22;11347;52.030;4.690;2022-08-19T11:45:25;25.70;60.80
22360;DHT22;11347;52.030;4.690;2022-08-19T11:47:51;25.80;60.80
22360;DHT22;11347;52.030;4.690;2022-08-19T11:50:17;25.70;60.70
22360;DHT22;11347;52.030;4.690;2022-08-19T11:52:43;25.80;60.70
22360;DHT22;11347;52.030;4.690;2022-08-19T11:55:11;25.80;60.60
22360;DHT22;11347;52.030;4.690;2022-08-19T11:57:37;25.80;60.70
22360;DHT22;11347;52.030;4.690;2022-08-19T12:00:04;25.80;60.70
22360;DHT22;11347;52.030;4.690;2022-08-19T12:02:31;25.80;60.70
22360;DHT22;11347;52.030;4.690;2022-08-19T12:04:57;25.90;60.90
22360;DHT22;11347;52.030;4.690;2022-08-19T12:07:22;25.80;60.80
22360;DHT22;11347;52.030;4.690;2022-08-19T12:09:48;25.90;60.90
22360;DHT22;11347;52.030;4.690;2022-08-19T12:12:14;25.90;61.00
22360;DHT22;11347;52.030;4.690;2022-08-19T12:14:39;25.90;61.10
22360;DHT22;11347;52.030;4.690;2022-08-19T12:17:05;25.90;61.10
22360;DHT22;11347;52.030;4.690;2022-08-19T12:19:33;25.90;61.20
22360;DHT22;11347;52.030;4.690;2022-08-19T12:22:00;25.90;61.30
22360;DHT22;11347;52.030;4.690;2022-08-19T12:24:30;25.90;61.20
22360;DHT22;11347;52.030;4.690;2022-08-19T12:26:57;25.90;61.10
22360;DHT22;11347;52.030;4.690;2022-08-19T12:29:24;26.00;61.10
22360;DHT22;11347;52.030;4.690;2022-08-19T12:31:55;26.00;61.00
22360;DHT22;11347;52.030;4.690;2022-08-19T12:34:27;26.00;61.00
22360;DHT22;11347;52.030;4.690;2022-08-19T12:36:58;26.00;61.00
22360;DHT22;11347;52.030;4.690;2022-08-19T12:39:24;26.00;61.00
22360;DHT22;11347;52.030;4.690;2022-08-19T12:41:50;26.00;61.00
22360;DHT22;11347;52.030;4.690;2022-08-19T12:44:16;26.00;61.40
22360;DHT22;11347;52.030;4.690;2022-08-19T12:46:42;26.00;60.90
22360;DHT22;11347;52.030;4.690;2022-08-19T12:49:08;26.00;60.90
22360;DHT22;11347;52.030;4.690;2022-08-19T12:51:33;26.00;60.90
22360;DHT22;11347;52.030;4.690;2022-08-19T12:53:59;26.00;61.00
22360;DHT22;11347;52.030;4.690;2022-08-19T12:56:25;26.00;61.00
22360;DHT22;11347;52.030;4.690;2022-08-19T12:58:50;26.00;61.00
22360;DHT22;11347;52.030;4.690;2022-08-19T13:01:17;26.00;61.10
22360;DHT22;11347;52.030;4.690;2022-08-19T13:03:45;26.00;61.10
22360;DHT22;11347;52.030;4.690;2022-08-19T13:06:11;26.00;61.10
22360;DHT22;11347;52.030;4.690;2022-08-19T13:08:37;26.10;61.20
22360;DHT22;11347;52.030;4.690;2022-08-19T13:11:12;26.10;61.30
22360;DHT22;11347;52.030;4.690;2022-08-19T13:13:42;26.10;61.30
22360;DHT22;11347;52.030;4.690;2022-08-19T13:16:10;26.10;61.20
22360;DHT22;11347;52.030;4.690;2022-08-19T13:18:36;26.10;61.10
22360;DHT22;11347;52.030;4.690;2022-08-19T13:21:07;26.10;61.10
22360;DHT22;11347;52.030;4.690;2022-08-19T13:23:34;26.10;61.00
22360;DHT22;11347;52.030;4.690;2022-08-19T13:26:05;26.10;60.90
22360;DHT22;11347;52.030;4.690;2022-08-19T13:28:32;26.10;60.90
22360;DHT22;11347;52.030;4.690;2022-08-19T13:31:21;26.10;60.70
22360;DHT22;11347;52.030;4.690;2022-08-19T13:34:05;26.10;60.60
22360;DHT22;11347;52.030;4.690;2022-08-19T13:36:32;26.10;60.60
22360;DHT22;11347;52.030;4.690;2022-08-19T13:38:58;26.10;60.60
22360;DHT22;11347;52.030;4.690;2022-08-19T13:41:24;26.10;60.60
22360;DHT22;11347;52.030;4.690;2022-08-19T13:43:50;26.10;60.60
22360;DHT22;11347;52.030;4.690;2022-08-19T13:46:15;26.10;60.70
22360;DHT22;11347;52.030;4.690;2022-08-19T13:48:41;26.10;60.70
22360;DHT22;11347;52.030;4.690;2022-08-19T13:51:08;26.10;60.70
22360;DHT22;11347;52.030;4.690;2022-08-19T13:53:37;26.10;60.70
22360;DHT22;11347;52.030;4.690;2022-08-19T13:56:11;26.10;60.70
22360;DHT22;11347;52.030;4.690;2022-08-19T13:58:37;26.10;60.70
22360;DHT22;11347;52.030;4.690;2022-08-19T14:01:03;26.20;60.90
22360;DHT22;11347;52.030;4.690;2022-08-19T14:03:29;26.10;61.00
22360;DHT22;11347;52.030;4.690;2022-08-19T14:05:55;26.20;61.20
22360;DHT22;11347;52.030;4.690;2022-08-19T14:08:20;26.20;61.40
22360;DHT22;11347;52.030;4.690;2022-08-19T14:10:46;26.20;61.40
22360;DHT22;11347;52.030;4.690;2022-08-19T14:13:17;26.20;61.40
22360;DHT22;11347;52.030;4.690;2022-08-19T14:15:44;26.20;61.50
22360;DHT22;11347;52.030;4.690;2022-08-19T14:18:10;26.20;61.60
22360;DHT22;11347;52.030;4.690;2022-08-19T14:20:36;26.20;61.80
22360;DHT22;11347;52.030;4.690;2022-08-19T14:23:02;26.20;62.00
22360;DHT22;11347;52.030;4.690;2022-08-19T14:25:29;26.20;62.10
22360;DHT22;11347;52.030;4.690;2022-08-19T14:27:56;26.20;62.20
22360;DHT22;11347;52.030;4.690;2022-08-19T14:30:28;26.20;62.20
22360;DHT22;11347;52.030;4.690;2022-08-19T14:32:55;26.20;62.20
22360;DHT22;11347;52.030;4.690;2022-08-19T14:35:21;26.20;62.30
22360;DHT22;11347;52.030;4.690;2022-08-19T14:37:48;26.20;62.30
22360;DHT22;11347;52.030;4.690;2022-08-19T14:40:17;26.20;62.40
22360;DHT22;11347;52.030;4.690;2022-08-19T14:42:45;26.20;62.40
22360;DHT22;11347;52.030;4.690;2022-08-19T14:45:12;26.20;62.50
22360;DHT22;11347;52.030;4.690;2022-08-19T14:47:38;26.20;62.50
22360;DHT22;11347;52.030;4.690;2022-08-19T14:50:07;26.20;62.70
22360;DHT22;11347;52.030;4.690;2022-08-19T14:52:33;26.20;62.80
22360;DHT22;11347;52.030;4.690;2022-08-19T14:54:59;26.20;62.90
22360;DHT22;11347;52.030;4.690;2022-08-19T14:57:25;26.20;63.10
22360;DHT22;11347;52.030;4.690;2022-08-19T14:59:50;26.20;63.20
22360;DHT22;11347;52.030;4.690;2022-08-19T15:02:16;26.20;63.20
22360;DHT22;11347;52.030;4.690;2022-08-19T15:04:41;26.20;63.20
22360;DHT22;11347;52.030;4.690;2022-08-19T15:07:07;26.20;63.30
22360;DHT22;11347;52.030;4.690;2022-08-19T15:09:33;26.20;63.60
22360;DHT22;11347;52.030;4.690;2022-08-19T15:11:59;26.20;63.90
22360;DHT22;11347;52.030;4.690;2022-08-19T15:14:26;26.20;64.00
22360;DHT22;11347;52.030;4.690;2022-08-19T15:16:51;26.20;64.00
22360;DHT22;11347;52.030;4.690;2022-08-19T15:19:17;26.20;64.00
22360;DHT22;11347;52.030;4.690;2022-08-19T15:21:46;26.20;64.00
22360;DHT22;11347;52.030;4.690;2022-08-19T15:24:12;26.20;64.00
22360;DHT22;11347;52.030;4.690;2022-08-19T15:26:37;26.20;64.00
22360;DHT22;11347;52.030;4.690;2022-08-19T15:29:03;26.20;63.90
22360;DHT22;11347;52.030;4.690;2022-08-19T15:31:30;26.20;63.60
22360;DHT22;11347;52.030;4.690;2022-08-19T15:34:02;26.20;63.40
22360;DHT22;11347;52.030;4.690;2022-08-19T15:36:28;26.20;63.20
22360;DHT22;11347;52.030;4.690;2022-08-19T15:38:57;26.20;63.20
22360;DHT22;11347;52.030;4.690;2022-08-19T15:41:26;26.20;63.20
22360;DHT22;11347;52.030;4.690;2022-08-19T15:44:15;26.20;63.20
22360;DHT22;11347;52.030;4.690;2022-08-19T15:46:44;26.20;63.20
22360;DHT22;11347;52.030;4.690;2022-08-19T15:49:12;26.10;63.30
22360;DHT22;11347;52.030;4.690;2022-08-19T15:51:40;26.10;63.40
22360;DHT22;11347;52.030;4.690;2022-08-19T15:54:09;26.10;64.00
22360;DHT22;11347;52.030;4.690;2022-08-19T15:56:36;26.10;64.00
22360;DHT22;11347;52.030;4.690;2022-08-19T15:59:20;26.10;64.00
22360;DHT22;11347;52.030;4.690;2022-08-19T16:02:05;26.10;64.00
22360;DHT22;11347;52.030;4.690;2022-08-19T16:04:51;26.10;64.00
22360;DHT22;11347;52.030;4.690;2022-08-19T16:07:35;26.10;64.00
22360;DHT22;11347;52.030;4.690;2022-08-19T16:10:01;26.10;64.00
22360;DHT22;11347;52.030;4.690;2022-08-19T16:12:26;26.10;64.20
22360;DHT22;11347;52.030;4.690;2022-08-19T16:14:55;26.10;64.20
22360;DHT22;11347;52.030;4.690;2022-08-19T16:17:21;26.10;64.20